Ciclone tropical ELOISE 2021: trajetória, intensidade e histórico
27/01/2021, 18:00:00
11/01/2021, 18:00:00 – 27/01/2021, 18:00:00
Trajetória histórica
Acompanhe a evolução e o deslocamento de Ciclone tropical ELOISE em 2021, com a trajetória completa registrada, ventos máximos sustentados de 90 nós, pressão central mínima e cronologia detalhada.
| Data | Hora | Tipo | Ventokm/h | PressãohPa |
|---|---|---|---|---|
| 27/01 | 18:00 | TCCiclone tropical | -- | -- |
| 27/01 | 15:00 | TDDepressão tropical | -- | -- |
| 27/01 | 12:00 | TCCiclone tropical | -- | -- |
| 27/01 | 09:00 | TDDepressão tropical | -- | -- |
| 27/01 | 06:00 | TCCiclone tropical | -- | -- |
| 27/01 | 03:00 | TDDepressão tropical | -- | -- |
| 27/01 | 00:00 | TCCiclone tropical | -- | -- |
| 26/01 | 21:00 | TDDepressão tropical | -- | -- |
| 26/01 | 18:00 | TCCiclone tropical | -- | -- |
| 26/01 | 15:00 | TDDepressão tropical | -- | -- |
| 26/01 | 12:00 | TCCiclone tropical | -- | -- |
| 26/01 | 09:00 | TDDepressão tropical | -- | -- |
| 26/01 | 06:00 | VITCCiclone tropical muito intenso | -- | -- |
| 26/01 | 03:00 | TDDepressão tropical | -- | -- |
| 26/01 | 00:00 | VITCCiclone tropical muito intenso | -- | -- |
| 25/01 | 21:00 | TDDepressão tropical | -- | -- |
| 25/01 | 18:00 | VITCCiclone tropical muito intenso | -- | -- |
| 25/01 | 15:00 | TDDepressão tropical | -- | -- |
| 25/01 | 12:00 | VITCCiclone tropical muito intenso | -- | -- |
| 25/01 | 09:00 | TDDepressão tropical | -- | -- |
| 25/01 | 06:00 | VITCCiclone tropical muito intenso | 30 | -- |
| 25/01 | 03:00 | TDDepressão tropical | 35 | -- |
| 25/01 | 00:00 | VITCCiclone tropical muito intenso | 35 | -- |
| 24/01 | 21:00 | TDDepressão tropical | 35 | -- |
| 24/01 | 18:00 | VITCCiclone tropical muito intenso | 35 | -- |
| 24/01 | 15:00 | TDDepressão tropical | 35 | -- |
| 24/01 | 12:00 | VITCCiclone tropical muito intenso | 35 | -- |
| 24/01 | 09:00 | TDDepressão tropical | 35 | -- |
| 24/01 | 06:00 | VITCCiclone tropical muito intenso | 35 | -- |
| 24/01 | 03:00 | TDDepressão tropical | 45 | -- |
| 24/01 | 00:00 | VITCCiclone tropical muito intenso | 55 | 999 |
| 23/01 | 21:00 | TSTempestade tropical | 70 | 996 |
| 23/01 | 18:00 | VITCCiclone tropical muito intenso | 85 | 993 |
| 23/01 | 15:00 | TSTempestade tropical | 95 | 992 |
| 23/01 | 12:00 | VITCCiclone tropical muito intenso | 100 | 990 |
| 23/01 | 09:00 | TCCiclone tropical | 120 | 985 |
| 23/01 | 06:00 | MTSTempestade tropical moderada | 140 | 980 |
| 23/01 | 03:00 | TCCiclone tropical | 155 | 974 |
| 23/01 | 00:00 | MTSTempestade tropical moderada | 165 | 968 |
| 22/01 | 21:00 | TCCiclone tropical | 155 | 972 |
| 22/01 | 18:00 | MTSTempestade tropical moderada | 150 | 975 |
| 22/01 | 15:00 | TCCiclone tropical | 150 | 976 |
| 22/01 | 12:00 | MTSTempestade tropical moderada | 150 | 977 |
| 22/01 | 09:00 | TCCiclone tropical | 145 | 979 |
| 22/01 | 06:00 | TDDepressão tropical | 140 | 981 |
| 22/01 | 03:00 | TCCiclone tropical | 130 | 984 |
| 22/01 | 00:00 | TDDepressão tropical | 120 | 987 |
| 21/01 | 21:00 | TSTempestade tropical | 110 | 991 |
| 21/01 | 18:00 | TDDepressão tropical | 100 | 994 |
| 21/01 | 15:00 | TSTempestade tropical | 95 | 997 |
| 21/01 | 12:00 | TDDepressão tropical | 85 | 999 |
| 21/01 | 09:00 | TSTempestade tropical | 80 | 1001 |
| 21/01 | 06:00 | TDDepressão tropical | 75 | 1002 |
| 21/01 | 03:00 | TSTempestade tropical | 70 | 1002 |
| 21/01 | 00:00 | TDDepressão tropical | 65 | 1001 |
| 20/01 | 21:00 | TSTempestade tropical | 70 | 1000 |
| 20/01 | 18:00 | TDDepressão tropical | 75 | 999 |
| 20/01 | 15:00 | TSTempestade tropical | 70 | 1000 |
| 20/01 | 12:00 | DBPerturbação tropical | 65 | 1000 |
| 20/01 | 09:00 | TDDepressão tropical | 60 | 1003 |
| 20/01 | 06:00 | VITCCiclone tropical muito intenso | 55 | 1005 |
| 20/01 | 03:00 | TSTempestade tropical | 65 | 1001 |
| 20/01 | 00:00 | VITCCiclone tropical muito intenso | 75 | 997 |
| 19/01 | 21:00 | TSTempestade tropical | 85 | 995 |
| 19/01 | 18:00 | TDDepressão tropical | 95 | 993 |
| 19/01 | 15:00 | TSTempestade tropical | 90 | 995 |
| 19/01 | 12:00 | TDDepressão tropical | 85 | 996 |
| 19/01 | 09:00 | TSTempestade tropical | 95 | 995 |
| 19/01 | 06:00 | TDDepressão tropical | 100 | 993 |
| 19/01 | 03:00 | TSTempestade tropical | 105 | 991 |
| 19/01 | 00:00 | TDDepressão tropical | 110 | 989 |
| 18/01 | 21:00 | TSTempestade tropical | 105 | 991 |
| 18/01 | 18:00 | TDDepressão tropical | 100 | 992 |
| 18/01 | 15:00 | TSTempestade tropical | 100 | 994 |
| 18/01 | 12:00 | TDDepressão tropical | 95 | 996 |
| 18/01 | 09:00 | TSTempestade tropical | 95 | 996 |
| 18/01 | 06:00 | TDDepressão tropical | 95 | 995 |
| 18/01 | 03:00 | TSTempestade tropical | 95 | 995 |
| 18/01 | 00:00 | TDDepressão tropical | 95 | 994 |
| 17/01 | 21:00 | TSTempestade tropical | 90 | 997 |
| 17/01 | 18:00 | TDDepressão tropical | 85 | 999 |
| 17/01 | 15:00 | TSTempestade tropical | 80 | 999 |
| 17/01 | 12:00 | TDDepressão tropical | 75 | 998 |
| 17/01 | 09:00 | TSTempestade tropical | 70 | 999 |
| 17/01 | 06:00 | TDDepressão tropical | 65 | 1000 |
| 17/01 | 03:00 | TSTempestade tropical | 65 | 999 |
| 17/01 | 00:00 | TDDepressão tropical | 65 | 998 |
| 16/01 | 21:00 | TDDepressão tropical | 60 | 1001 |
| 16/01 | 18:00 | TDDepressão tropical | 55 | 1003 |
| 16/01 | 15:00 | TSTempestade tropical | 60 | 1001 |
| 16/01 | 12:00 | TDDepressão tropical | 65 | 999 |
| 16/01 | 09:00 | TSTempestade tropical | 65 | 999 |
| 16/01 | 06:00 | DBPerturbação tropical | 65 | 999 |
| 16/01 | 03:00 | TDDepressão tropical | 60 | 1001 |
| 16/01 | 00:00 | DBPerturbação tropical | 55 | 1002 |
| 15/01 | 21:00 | TDDepressão tropical | 50 | 1004 |
| 15/01 | 18:00 | DBPerturbação tropical | 45 | 1005 |
| 15/01 | 15:00 | DBPerturbação tropical | 45 | 1005 |
| 15/01 | 12:00 | DBPerturbação tropical | 35 | 1004 |
| 15/01 | 09:00 | DBPerturbação tropical | 35 | 1005 |
| 15/01 | 06:00 | DBPerturbação tropical | 30 | 1006 |
| 15/01 | 03:00 | DBPerturbação tropical | 35 | 1006 |
| 15/01 | 00:00 | DBPerturbação tropical | 35 | 1006 |
| 14/01 | 21:00 | DBPerturbação tropical | 35 | 1006 |
| 14/01 | 18:00 | DBPerturbação tropical | 35 | 1005 |
| 14/01 | 15:00 | DBPerturbação tropical | 35 | 1006 |
| 14/01 | 12:00 | DBPerturbação tropical | 35 | 1007 |
| 14/01 | 09:00 | DBPerturbação tropical | 35 | 1007 |
| 14/01 | 06:00 | DBPerturbação tropical | 30 | 1007 |
| 14/01 | 03:00 | DBPerturbação tropical | 30 | 1007 |
| 14/01 | 00:00 | DBPerturbação tropical | 30 | 1006 |
| 13/01 | 21:00 | DBPerturbação tropical | 35 | 1007 |
| 13/01 | 18:00 | DBPerturbação tropical | 35 | 1007 |
| 13/01 | 15:00 | DBPerturbação tropical | 35 | 1007 |
| 13/01 | 12:00 | DBPerturbação tropical | 35 | 1007 |
| 13/01 | 09:00 | DBPerturbação tropical | 35 | 1005 |
| 13/01 | 06:00 | DBPerturbação tropical | 35 | 1003 |
| 13/01 | 03:00 | DBPerturbação tropical | 35 | 1004 |
| 13/01 | 00:00 | DBPerturbação tropical | 35 | 1004 |
| 12/01 | 21:00 | TDDepressão tropical | 45 | 1005 |
| 12/01 | 18:00 | TDDepressão tropical | 45 | 1005 |
| 12/01 | 15:00 | TDDepressão tropical | 45 | 1005 |
| 12/01 | 12:00 | TDDepressão tropical | 45 | 1005 |
| 12/01 | 09:00 | TDDepressão tropical | 45 | 1005 |
| 12/01 | 06:00 | TDDepressão tropical | 45 | 1004 |
| 12/01 | 03:00 | DBPerturbação tropical | 45 | 1006 |
| 12/01 | 00:00 | DBPerturbação tropical | 35 | 1007 |
| 11/01 | 21:00 | DBPerturbação tropical | 35 | 1009 |
| 11/01 | 18:00 | DBPerturbação tropical | 30 | 1010 |
Cronologia de localização
129 Registos de localizaçãoDesastres naturais próximos
Detalhes do evento
Ligações das fontes
Também pode encontrar estas ferramentas úteis
A localização, a extensão e o estado de cada evento podem ser atualizados em momentos diferentes consoante a fonte. Confirme decisões importantes junto das autoridades oficiais de emergência.
Os registos de eventos provêm da NASA EONET e são complementados por registos de deslizamentos de terra do USGS FDSN. As análises e previsões de tempestades podem utilizar a NOAA NHC ou o JTWC, com registos históricos ATCF da UCAR/NCAR quando disponíveis. As imagens de satélite provêm da NASA Worldview/GIBS (GOES e Himawari) ou da EUMETSAT Meteosat, consoante a cobertura do mapa.
Fontes: NASA EONET · USGS · NOAA NHC · JTWC · UCAR/NCAR ATCF · NASA Worldview/GIBS · EUMETSAT Meteosat · OpenStreetMap contributors